Create Custom Reports and Graphics: Custom Report

Lodi West

10 Stations

Daily Data | America/Los_Angeles
as of 9/28/20 10:23 AM PDT
Station Date Daily Max Temp (°F) Max Temp Time Daily Min Temp (°F) Min Temp Time Dew Pt (°F) Max RH (%) Min RH (%) Wind Spd (mph) Daily Max Wind (mph) Max Wind Time Max Wind Dir (°) Daily Rain (In) Seasonal Rainfall (In) Daily ETo (in) Daily Solar Rad (Cal/cm2) Powdery Mildew Stress (pts)
Claussen 9/27/20 94.4   3.6 1637 63.5   6.7 0712 55.5   0.1 79   1 28   3 3.3   1.1 14.9   4.1 1127 NNW | 347 0.00 0.00 0.178   0.012 470   2 40   20
Clarksburg 9/27/20 97.9   5.0 1600 64.8   11.1 2224 49.1   3.8 77   15 15   8 4.3   2.2 22.8   8.1 0358 NNW | 340 0.00 - 0.186   0.030 - 0   0
Courtland-C3 9/27/20 94.1   4.3 1722 63.8   9.4 2252 50.9   3.7 66   26 22   6 5.9   2.0 22.9   3.2 0219 NNW | 340 0.00 0.01 - - 0   10
Guard Rd (Lodi WSW) 9/27/20 94.0   4.4 1722 59.1   6.7 0058 57.0   0.6 93   4 30   1 2.9   0.4 17.4   0.2 0519 NNW | 331 0.00 0.03 0.152   0.004 417   8 0   0
Gorter - Wilson 9/27/20 98.1   8.1 1638 61.3   9.9 2225 52.8   2.3 84   11 20   10 4.7   1.4 23.3   7.1 0502 NNW | 347 0.00 0.00 0.190   0.027 444   38 0   0
Hood 9/27/20 96.3   8.4 1750 62.3   11.6 2242 53.4   1.4 86   12 21   7 3.9   1.4 21.3   2.0 0200 NNW | 347 0.00 0.01 0.157   0.024 364   29 0   0
Pacific Fruit 9/27/20 95.8   3.7 1658 65.1   9.6 2215 52.7   3.7 74   16 22   5 3.5   1.1 19.1   1.9 1105 NNE | 21 0.00 0.02 0.167   0.031 384   13 0   10
Ryer Island South 9/27/20 94.3   2.5 1540 60.7   2.3 0059 49.6   4.8 70   3 19   7 4.4   0.5 20.5   7.0 1135 N | 352 0.00 0.02 0.190   0.021 439   20 40   20
Utter - Wilson 9/27/20 98.6   8.1 1615 66.0   12.1 2151 52.0   3.3 72   22 17   12 6.2   2.3 22.0   4.7 0312 NW | 326 0.00 0.00 0.213   0.039 437   34 30   10
Clarksburg-3A2 9/27/20 94.8   4.2 1653 65.0   10.9 2219 48.9   3.4 66   26 18   4 9.0   3.3 31.1   9.6 0335 NNW | 330 0.00 0.00 0.210   0.026 324   16 20   20
Max   98.6 - 66.0 - 57.0 93 30 9.0 31.1 - - 0.00 - 0.213 470 40
Avg   - - - - 52.2 - - 4.8 - - - - - - - -
Min   94.0 - 59.1 - 48.9 66 15 2.9 14.9 - - 0.00 - 0.152 324 0

Lodi Central

9 Stations

Daily Data | America/Los_Angeles
as of 9/28/20 10:23 AM PDT
Station Date Daily Max Temp (°F) Max Temp Time Daily Min Temp (°F) Min Temp Time Dew Pt (°F) Max RH (%) Min RH (%) Wind Spd (mph) Daily Max Wind (mph) Max Wind Time Max Wind Dir (°) Daily Rain (In) Seasonal Rainfall (In) Daily ETo (in) Daily Solar Rad (Cal/cm2) Powdery Mildew Stress (pts)
Galt West 9/27/20 93.6   4.2 1609 57.5   4.2 0546 53.7   0.5 80   12 23   5 2.8   0.1 14.4   1.9 1024 NNE | 22 0.00 0.00 0.164   0.004 443   30 0   0
Valley Oak 9/27/20 93.9   5.2 1616 53.4   1.3 0659 53.0   0.5 89   6 20   6 1.7   0.9 15.4   2.9 1000 N | 352 0.00 0.01 0.152   0.002 450   29 0   0
Thornton 9/27/20 91.5   2.8 1540 55.8   3.6 0713 52.5   0.1 75   7 25   1 2.2   1.1 20.5   1.7 1422 NE | 51 0.00 0.00 0.151   0.011 400   25 0   10
Kost Rd 9/27/20 93.2   2.7 1626 54.8   2.1 0710 57.9   3.3 88   5 25   2 0.8   2.1 12.1   3.7 1006 N | 10 0.00 0.00 0.124   0.025 81   276 0   0
DeVries Road-North 9/27/20 94.1   4.1 1614 54.7   2.0 0624 55.1   0.9 86   6 26   2 1.8   1.3 13.6   1.8 0952 N | 351 0.00 0.01 0.143   0.016 402   11 0   10
Lodi (LangeTwins) 9/27/20 94.8   3.7 1644 55.3   1.6 0703 53.7   0.1 84   1 25   1 1.4   1.3 14.5   3.4 0923 NNW | 345 0.00 0.00 0.142   0.019 413   4 0   0
Acampo 9/27/20 93.3   3.7 1702 54.7   1.4 0714 53.7   1.9 88   0 23   0 1.1   1.4 12.8   2.7 0906 N | 354 0.00 0.00 0.135   0.025 418   14 0   10
Acampo (Woodbridge) 9/27/20 92.8   2.7 1504 56.8   1.4 0626 53.7   0.6 84   5 23   1 2.2   2.6 12.7   4.8 0935 N | 3 0.00 0.00 0.155   0.036 452   16 0   10
Lodi West 7/12/20 102.5   0.5 1657 58.4   2.6 0554 48.5   0.9 74   7 8   1 2.1   0.0 11.4   2.4 1547 NW | 322 0.00 0.00 0.253   0.002 663   0 0   0
Max   94.8 - 57.5 - 57.9 89 26 2.8 20.5 - - 0.00 - 0.164 452 0
Avg   - - - - 54.2 - - 1.7 - - - - - - - -
Min   91.5 - 53.4 - 52.5 75 20 0.8 12.1 - - 0.00 - 0.124 81 0

Latest Observation

18 Stations

Daily Data | America/Los_Angeles
as of 9/28/20 10:23 AM PDT
Station Date Daily Max Temp (°F) Max Temp Time Daily Min Temp (°F) Min Temp Time Dew Pt (°F) Max RH (%) Min RH (%) Wind Spd (mph) Wind Dir (°) Daily Max Wind (mph) Max Wind Time Daily Rain (In) Seasonal Rainfall (In) Daily ETo (in) Daily Solar Rad (Cal/cm2) Powdery Mildew Stress (pts)
5 Wells 9/27/20 93.1   3.9 1714 53.6   0.2 0652 52.1   0.4 86   3 22   5 1.7   1.8 ENE | 64 9.3   9.3 0922 0.00 0.00 0.145   0.024 431   22 0   10
Borden Hills 9/27/20 95.5   3.8 1634 55.1   0.4 0703 56.0   1.1 89   6 27   4 2.7   1.3 NE | 48 8.7   8.0 1351 0.00 0.00 0.153   0.013 439   30 0   0
Collegeville 9/27/20 92.1   2.3 1535 57.0   4.1 0713 55.3   1.2 93   4 26   1 1.3   1.6 WNW | 298 9.8   7.8 0325 0.00 0.00 0.142   0.026 445   1 30   10
Galt-East 9/27/20 91.6   2.5 1609 55.6   2.8 0716 53.6   0.6 86   3 26   1 1.5   1.7 N | 357 9.3   9.6 1235 0.00 0.00 0.132   0.024 392   15 0   10
Escalon 9/27/20 91.3   0.8 1602 62.3   6.1 0045 56.0   1.5 95   3 28   2 1.8   1.5 WNW | 295 9.2   5.4 1105 0.00 0.00 - - 0   10
Victor - N (Katusha) 9/27/20 92.5   3.1 1633 56.2   4.4 0539 52.3   1.6 80   8 24   1 1.1   1.7 - 9.5   5.0 1258 0.00 0.00 - - 0   10
Gilbeau Ranch 9/27/20 93.4   3.0 1532 54.9   2.8 0607 53.2   1.5 87   2 22   2 1.2   1.2 NE | 48 9.6   7.7 1206 0.00 0.00 0.140   0.011 435   22 0   10
Linden 9/27/20 92.7   3.6 1642 53.8   3.2 0713 57.9   2.7 97   2 30   3 0.9   1.4 W | 268 6.1   7.5 1321 0.00 0.00 - - 0   10
Live Oak 9/27/20 93.0   3.7 1609 55.4   3.1 0543 56.1   1.5 91   6 27   1 1.6   1.4 N | 1 11.6   3.4 0915 0.00 0.01 0.138   0.021 421   13 0   10
Lockeford 9/27/20 90.8   2.0 1645 55.5   2.7 0512 53.1   2.2 84   2 25   0 1.6   1.7 NNW | 331 12.1   8.4 1232 0.00 0.04 0.133   0.027 396   17 0   0
Lone Oak-L28 9/27/20 90.7   2.9 1546 51.8   1.1 0638 56.9   2.1 98   0 32   0 1.7   1.7 SE | 134 8.4   8.8 1652 0.00 0.00 - - 0   10
Colony 1 9/27/20 93.8   4.3 1705 53.2   0.4 0631 53.3   0.5 91   2 22   5 1.5   1.5 ENE | 60 8.2   13.4 0851 1.43 1.43 0.151   0.016 453   36 0   0
Colony 2 9/27/20 94.2   4.2 1553 56.1   2.6 0641 54.5   0.8 87   3 21   6 1.9   1.0 ENE | 65 10.0   8.7 0834 0.00 0.00 0.149   0.008 442   34 0   0
Sheldon 9/27/20 96.3   7.1 1724 53.1   1.6 0656 51.4   0.1 90   2 18   9 1.8   1.2 N | 356 10.5   8.7 0923 0.00 0.00 0.153   0.011 443   48 0   0
Sierra Loma-L27 9/27/20 93.6   3.7 1631 54.7   0.4 0534 55.6   1.6 90   6 27   4 1.6   1.6 NNE | 12 14.1   5.4 1256 0.00 0.00 - - 0   0
Simmerhorn 9/27/20 91.5   3.8 1544 54.4   0.0 0616 52.2   0.9 90   2 24   3 - - - - - - - - 0   10
Sloughhouse 9/27/20 97.3   7.9 1716 49.4   1.0 0652 50.5   0.6 - 18   7 0.9   0.3 NW | 318 13.8   5.0 1335 0.00 0.00 0.088   0.002 234   23 0   0
Teresi-Alpine Rd (East Lodi) 9/27/20 93.5   3.6 1543 57.7   4.2 0537 54.9   1.9 83   8 26   2 1.9   2.1 NNW | 333 11.5   6.7 0932 0.00 0.00 0.145   0.035 420   9 0   10
Max   97.3 - 62.3 - 57.9 98 32 2.7 - 14.1 - 1.43 - 0.153 453 30
Avg   - - - - 54.2 - - 1.6 - - - - - - - -
Min   90.7 - 49.4 - 50.5 80 18 0.9 - 6.1 - 0.00 - 0.088 234 0